sensor_id;sensor_type;location;lat;lon;timestamp;P1;durP1;ratioP1;P2;durP2;ratioP2
16689;SDS011;8458;52.220;9.884;2023-12-07T00:02:07;19.47;;;18.27;;
16689;SDS011;8458;52.220;9.884;2023-12-07T00:04:33;18.90;;;17.70;;
16689;SDS011;8458;52.220;9.884;2023-12-07T00:06:59;19.80;;;18.70;;
16689;SDS011;8458;52.220;9.884;2023-12-07T00:09:27;19.57;;;18.20;;
16689;SDS011;8458;52.220;9.884;2023-12-07T00:11:54;17.80;;;16.77;;
16689;SDS011;8458;52.220;9.884;2023-12-07T00:14:20;18.40;;;17.40;;
16689;SDS011;8458;52.220;9.884;2023-12-07T00:16:47;17.87;;;16.53;;
16689;SDS011;8458;52.220;9.884;2023-12-07T00:19:14;18.93;;;17.63;;
16689;SDS011;8458;52.220;9.884;2023-12-07T00:21:40;17.57;;;16.53;;
16689;SDS011;8458;52.220;9.884;2023-12-07T00:24:07;18.30;;;17.27;;
16689;SDS011;8458;52.220;9.884;2023-12-07T00:26:35;17.67;;;16.67;;
16689;SDS011;8458;52.220;9.884;2023-12-07T00:29:03;18.57;;;17.47;;
16689;SDS011;8458;52.220;9.884;2023-12-07T00:31:29;18.43;;;17.33;;
16689;SDS011;8458;52.220;9.884;2023-12-07T00:33:55;17.90;;;16.80;;
16689;SDS011;8458;52.220;9.884;2023-12-07T00:36:22;18.37;;;17.17;;
16689;SDS011;8458;52.220;9.884;2023-12-07T00:38:48;18.43;;;17.33;;
16689;SDS011;8458;52.220;9.884;2023-12-07T00:41:15;18.20;;;17.13;;
16689;SDS011;8458;52.220;9.884;2023-12-07T00:43:43;19.23;;;18.13;;
16689;SDS011;8458;52.220;9.884;2023-12-07T00:46:10;18.30;;;17.27;;
16689;SDS011;8458;52.220;9.884;2023-12-07T00:48:37;17.87;;;16.87;;
16689;SDS011;8458;52.220;9.884;2023-12-07T00:51:03;18.37;;;17.23;;
16689;SDS011;8458;52.220;9.884;2023-12-07T00:53:31;18.27;;;17.17;;
16689;SDS011;8458;52.220;9.884;2023-12-07T00:55:57;18.93;;;17.70;;
16689;SDS011;8458;52.220;9.884;2023-12-07T00:58:24;17.37;;;16.37;;
16689;SDS011;8458;52.220;9.884;2023-12-07T01:00:52;18.03;;;16.93;;
16689;SDS011;8458;52.220;9.884;2023-12-07T01:03:18;17.93;;;16.93;;
16689;SDS011;8458;52.220;9.884;2023-12-07T01:05:45;17.27;;;16.27;;
16689;SDS011;8458;52.220;9.884;2023-12-07T01:08:11;16.53;;;15.63;;
16689;SDS011;8458;52.220;9.884;2023-12-07T01:10:38;16.50;;;15.60;;
16689;SDS011;8458;52.220;9.884;2023-12-07T01:13:04;17.13;;;16.13;;
16689;SDS011;8458;52.220;9.884;2023-12-07T01:15:30;15.97;;;15.07;;
16689;SDS011;8458;52.220;9.884;2023-12-07T01:17:58;16.53;;;15.53;;
16689;SDS011;8458;52.220;9.884;2023-12-07T01:20:25;16.77;;;15.77;;
16689;SDS011;8458;52.220;9.884;2023-12-07T01:22:51;16.67;;;15.67;;
16689;SDS011;8458;52.220;9.884;2023-12-07T01:25:18;15.73;;;14.83;;
16689;SDS011;8458;52.220;9.884;2023-12-07T01:27:46;15.97;;;15.07;;
16689;SDS011;8458;52.220;9.884;2023-12-07T01:30:13;16.37;;;15.47;;
16689;SDS011;8458;52.220;9.884;2023-12-07T01:32:39;16.87;;;15.87;;
16689;SDS011;8458;52.220;9.884;2023-12-07T01:35:08;16.70;;;15.73;;
16689;SDS011;8458;52.220;9.884;2023-12-07T01:37:34;16.93;;;16.03;;
16689;SDS011;8458;52.220;9.884;2023-12-07T01:40:01;16.57;;;15.67;;
16689;SDS011;8458;52.220;9.884;2023-12-07T01:42:30;17.13;;;16.13;;
16689;SDS011;8458;52.220;9.884;2023-12-07T01:44:57;16.67;;;15.67;;
16689;SDS011;8458;52.220;9.884;2023-12-07T01:47:23;17.03;;;15.93;;
16689;SDS011;8458;52.220;9.884;2023-12-07T01:49:50;16.63;;;15.73;;
16689;SDS011;8458;52.220;9.884;2023-12-07T01:52:18;16.43;;;15.50;;
16689;SDS011;8458;52.220;9.884;2023-12-07T01:54:47;17.07;;;16.07;;
16689;SDS011;8458;52.220;9.884;2023-12-07T01:57:13;15.83;;;14.93;;
16689;SDS011;8458;52.220;9.884;2023-12-07T01:59:40;16.40;;;15.40;;
16689;SDS011;8458;52.220;9.884;2023-12-07T02:02:07;15.73;;;14.83;;
16689;SDS011;8458;52.220;9.884;2023-12-07T02:04:34;16.53;;;15.63;;
16689;SDS011;8458;52.220;9.884;2023-12-07T02:07:01;15.23;;;14.30;;
16689;SDS011;8458;52.220;9.884;2023-12-07T02:09:30;15.80;;;14.90;;
16689;SDS011;8458;52.220;9.884;2023-12-07T02:11:57;16.17;;;15.27;;
16689;SDS011;8458;52.220;9.884;2023-12-07T02:14:23;15.50;;;14.60;;
16689;SDS011;8458;52.220;9.884;2023-12-07T02:16:51;15.80;;;14.90;;
16689;SDS011;8458;52.220;9.884;2023-12-07T02:19:28;15.33;;;14.43;;
16689;SDS011;8458;52.220;9.884;2023-12-07T02:22:13;15.63;;;14.73;;
16689;SDS011;8458;52.220;9.884;2023-12-07T02:24:46;14.43;;;13.57;;
16689;SDS011;8458;52.220;9.884;2023-12-07T02:27:34;14.57;;;13.70;;
16689;SDS011;8458;52.220;9.884;2023-12-07T02:30:01;15.00;;;14.17;;
16689;SDS011;8458;52.220;9.884;2023-12-07T02:32:29;14.90;;;14.00;;
16689;SDS011;8458;52.220;9.884;2023-12-07T02:34:55;15.33;;;14.53;;
16689;SDS011;8458;52.220;9.884;2023-12-07T02:37:22;14.80;;;13.90;;
16689;SDS011;8458;52.220;9.884;2023-12-07T02:39:53;14.27;;;13.27;;
16689;SDS011;8458;52.220;9.884;2023-12-07T02:42:22;14.23;;;13.43;;
16689;SDS011;8458;52.220;9.884;2023-12-07T02:44:51;13.87;;;13.03;;
16689;SDS011;8458;52.220;9.884;2023-12-07T02:47:19;14.03;;;13.20;;
16689;SDS011;8458;52.220;9.884;2023-12-07T02:49:45;15.70;;;14.80;;
16689;SDS011;8458;52.220;9.884;2023-12-07T02:52:12;15.97;;;15.07;;
16689;SDS011;8458;52.220;9.884;2023-12-07T02:54:38;16.00;;;14.87;;
16689;SDS011;8458;52.220;9.884;2023-12-07T02:57:05;15.43;;;14.60;;
16689;SDS011;8458;52.220;9.884;2023-12-07T02:59:31;16.67;;;15.77;;
16689;SDS011;8458;52.220;9.884;2023-12-07T03:01:59;16.30;;;15.30;;
16689;SDS011;8458;52.220;9.884;2023-12-07T03:04:25;15.67;;;14.67;;
16689;SDS011;8458;52.220;9.884;2023-12-07T03:06:52;17.47;;;16.47;;
16689;SDS011;8458;52.220;9.884;2023-12-07T03:09:18;17.33;;;16.33;;
16689;SDS011;8458;52.220;9.884;2023-12-07T03:11:45;16.80;;;15.80;;
16689;SDS011;8458;52.220;9.884;2023-12-07T03:14:11;17.63;;;16.63;;
16689;SDS011;8458;52.220;9.884;2023-12-07T03:16:38;16.93;;;16.03;;
16689;SDS011;8458;52.220;9.884;2023-12-07T03:19:06;17.90;;;16.67;;
16689;SDS011;8458;52.220;9.884;2023-12-07T03:21:32;17.80;;;16.80;;
16689;SDS011;8458;52.220;9.884;2023-12-07T03:23:59;17.97;;;16.90;;
16689;SDS011;8458;52.220;9.884;2023-12-07T03:26:25;18.17;;;16.97;;
16689;SDS011;8458;52.220;9.884;2023-12-07T03:28:52;17.50;;;16.47;;
16689;SDS011;8458;52.220;9.884;2023-12-07T03:31:18;16.83;;;15.83;;
16689;SDS011;8458;52.220;9.884;2023-12-07T03:33:45;17.43;;;16.43;;
16689;SDS011;8458;52.220;9.884;2023-12-07T03:36:12;18.70;;;17.50;;
16689;SDS011;8458;52.220;9.884;2023-12-07T03:38:39;18.20;;;17.10;;
16689;SDS011;8458;52.220;9.884;2023-12-07T03:41:05;17.43;;;16.43;;
16689;SDS011;8458;52.220;9.884;2023-12-07T03:43:34;16.90;;;16.00;;
16689;SDS011;8458;52.220;9.884;2023-12-07T03:46:03;17.00;;;16.03;;
16689;SDS011;8458;52.220;9.884;2023-12-07T03:48:30;17.43;;;16.37;;
16689;SDS011;8458;52.220;9.884;2023-12-07T03:50:56;17.67;;;16.57;;
16689;SDS011;8458;52.220;9.884;2023-12-07T03:53:24;16.93;;;15.93;;
16689;SDS011;8458;52.220;9.884;2023-12-07T03:55:50;16.23;;;15.23;;
16689;SDS011;8458;52.220;9.884;2023-12-07T03:58:17;17.43;;;16.43;;
16689;SDS011;8458;52.220;9.884;2023-12-07T04:00:43;16.97;;;15.77;;
16689;SDS011;8458;52.220;9.884;2023-12-07T04:03:10;17.27;;;16.27;;
16689;SDS011;8458;52.220;9.884;2023-12-07T04:05:37;16.53;;;15.63;;
16689;SDS011;8458;52.220;9.884;2023-12-07T04:08:04;17.57;;;16.43;;
16689;SDS011;8458;52.220;9.884;2023-12-07T04:10:32;16.37;;;15.37;;
16689;SDS011;8458;52.220;9.884;2023-12-07T04:12:59;16.10;;;15.10;;
16689;SDS011;8458;52.220;9.884;2023-12-07T04:15:25;17.67;;;16.47;;
16689;SDS011;8458;52.220;9.884;2023-12-07T04:17:51;17.23;;;16.10;;
16689;SDS011;8458;52.220;9.884;2023-12-07T04:20:18;17.17;;;16.27;;
16689;SDS011;8458;52.220;9.884;2023-12-07T04:22:45;17.37;;;16.37;;
16689;SDS011;8458;52.220;9.884;2023-12-07T04:25:11;17.53;;;16.33;;
16689;SDS011;8458;52.220;9.884;2023-12-07T04:27:39;17.03;;;16.03;;
16689;SDS011;8458;52.220;9.884;2023-12-07T04:30:06;18.33;;;17.23;;
16689;SDS011;8458;52.220;9.884;2023-12-07T04:32:33;16.77;;;15.83;;
16689;SDS011;8458;52.220;9.884;2023-12-07T04:34:59;16.70;;;15.70;;
16689;SDS011;8458;52.220;9.884;2023-12-07T04:37:26;16.83;;;15.90;;
16689;SDS011;8458;52.220;9.884;2023-12-07T04:39:52;16.60;;;15.60;;
16689;SDS011;8458;52.220;9.884;2023-12-07T04:42:19;16.17;;;15.17;;
16689;SDS011;8458;52.220;9.884;2023-12-07T04:44:47;17.13;;;16.13;;
16689;SDS011;8458;52.220;9.884;2023-12-07T04:47:14;17.70;;;16.60;;
16689;SDS011;8458;52.220;9.884;2023-12-07T04:49:40;17.50;;;16.40;;
16689;SDS011;8458;52.220;9.884;2023-12-07T04:52:06;17.23;;;16.20;;
16689;SDS011;8458;52.220;9.884;2023-12-07T04:54:33;19.43;;;18.23;;
16689;SDS011;8458;52.220;9.884;2023-12-07T04:56:59;19.77;;;18.57;;
16689;SDS011;8458;52.220;9.884;2023-12-07T04:59:26;20.60;;;19.30;;
16689;SDS011;8458;52.220;9.884;2023-12-07T05:01:54;20.10;;;18.90;;
16689;SDS011;8458;52.220;9.884;2023-12-07T05:04:20;20.63;;;19.23;;
16689;SDS011;8458;52.220;9.884;2023-12-07T05:06:46;21.30;;;19.90;;
16689;SDS011;8458;52.220;9.884;2023-12-07T05:09:13;21.83;;;20.07;;
16689;SDS011;8458;52.220;9.884;2023-12-07T05:11:40;21.33;;;19.83;;
16689;SDS011;8458;52.220;9.884;2023-12-07T05:14:06;22.03;;;20.67;;
16689;SDS011;8458;52.220;9.884;2023-12-07T05:16:33;21.37;;;20.10;;
16689;SDS011;8458;52.220;9.884;2023-12-07T05:19:01;21.80;;;20.50;;
16689;SDS011;8458;52.220;9.884;2023-12-07T05:21:28;23.20;;;21.63;;
16689;SDS011;8458;52.220;9.884;2023-12-07T05:23:54;21.00;;;19.57;;
16689;SDS011;8458;52.220;9.884;2023-12-07T05:26:20;21.07;;;19.67;;
16689;SDS011;8458;52.220;9.884;2023-12-07T05:28:47;21.67;;;20.37;;
16689;SDS011;8458;52.220;9.884;2023-12-07T05:31:15;20.83;;;19.63;;
16689;SDS011;8458;52.220;9.884;2023-12-07T05:33:42;22.13;;;20.63;;
16689;SDS011;8458;52.220;9.884;2023-12-07T05:36:10;21.20;;;19.70;;
16689;SDS011;8458;52.220;9.884;2023-12-07T05:38:37;21.80;;;20.23;;
16689;SDS011;8458;52.220;9.884;2023-12-07T05:41:03;21.47;;;19.97;;
16689;SDS011;8458;52.220;9.884;2023-12-07T05:43:30;21.23;;;20.00;;
16689;SDS011;8458;52.220;9.884;2023-12-07T05:45:58;21.97;;;20.63;;
16689;SDS011;8458;52.220;9.884;2023-12-07T05:48:25;20.77;;;19.47;;
16689;SDS011;8458;52.220;9.884;2023-12-07T05:50:52;20.40;;;19.10;;
16689;SDS011;8458;52.220;9.884;2023-12-07T05:53:19;20.33;;;18.97;;
16689;SDS011;8458;52.220;9.884;2023-12-07T05:55:46;20.63;;;19.37;;
16689;SDS011;8458;52.220;9.884;2023-12-07T05:58:13;19.23;;;17.83;;
16689;SDS011;8458;52.220;9.884;2023-12-07T06:00:40;19.27;;;17.93;;
16689;SDS011;8458;52.220;9.884;2023-12-07T06:03:06;19.67;;;18.33;;
16689;SDS011;8458;52.220;9.884;2023-12-07T06:05:34;19.07;;;17.87;;
16689;SDS011;8458;52.220;9.884;2023-12-07T06:08:00;18.97;;;17.73;;
16689;SDS011;8458;52.220;9.884;2023-12-07T06:10:29;18.57;;;17.47;;
16689;SDS011;8458;52.220;9.884;2023-12-07T06:12:56;18.47;;;17.37;;
16689;SDS011;8458;52.220;9.884;2023-12-07T06:15:23;18.57;;;17.30;;
16689;SDS011;8458;52.220;9.884;2023-12-07T06:17:50;17.93;;;16.87;;
16689;SDS011;8458;52.220;9.884;2023-12-07T06:20:16;18.33;;;17.13;;
16689;SDS011;8458;52.220;9.884;2023-12-07T06:22:43;17.60;;;16.40;;
16689;SDS011;8458;52.220;9.884;2023-12-07T06:25:09;18.33;;;16.93;;
16689;SDS011;8458;52.220;9.884;2023-12-07T06:27:38;17.50;;;16.50;;
16689;SDS011;8458;52.220;9.884;2023-12-07T06:30:05;17.80;;;16.70;;
16689;SDS011;8458;52.220;9.884;2023-12-07T06:32:32;17.83;;;16.37;;
16689;SDS011;8458;52.220;9.884;2023-12-07T06:35:00;18.63;;;17.43;;
16689;SDS011;8458;52.220;9.884;2023-12-07T06:37:26;18.07;;;16.90;;
16689;SDS011;8458;52.220;9.884;2023-12-07T06:39:52;17.67;;;16.53;;
16689;SDS011;8458;52.220;9.884;2023-12-07T06:42:19;18.60;;;17.20;;
16689;SDS011;8458;52.220;9.884;2023-12-07T06:44:47;17.93;;;16.53;;
16689;SDS011;8458;52.220;9.884;2023-12-07T06:47:15;17.70;;;16.60;;
16689;SDS011;8458;52.220;9.884;2023-12-07T06:49:41;18.73;;;17.43;;
16689;SDS011;8458;52.220;9.884;2023-12-07T06:52:08;18.10;;;16.80;;
16689;SDS011;8458;52.220;9.884;2023-12-07T06:54:36;17.27;;;16.00;;
16689;SDS011;8458;52.220;9.884;2023-12-07T06:57:03;18.10;;;16.77;;
16689;SDS011;8458;52.220;9.884;2023-12-07T06:59:30;17.20;;;16.00;;
16689;SDS011;8458;52.220;9.884;2023-12-07T07:01:58;16.27;;;15.27;;
16689;SDS011;8458;52.220;9.884;2023-12-07T07:04:24;17.10;;;16.03;;
16689;SDS011;8458;52.220;9.884;2023-12-07T07:06:51;16.60;;;15.57;;
16689;SDS011;8458;52.220;9.884;2023-12-07T07:09:17;17.93;;;16.73;;
16689;SDS011;8458;52.220;9.884;2023-12-07T07:11:46;16.30;;;15.30;;
16689;SDS011;8458;52.220;9.884;2023-12-07T07:14:13;17.13;;;16.13;;
16689;SDS011;8458;52.220;9.884;2023-12-07T07:16:40;17.37;;;16.30;;
16689;SDS011;8458;52.220;9.884;2023-12-07T07:19:08;16.80;;;15.63;;
16689;SDS011;8458;52.220;9.884;2023-12-07T07:21:35;16.67;;;15.57;;
16689;SDS011;8458;52.220;9.884;2023-12-07T07:24:01;17.53;;;16.53;;
16689;SDS011;8458;52.220;9.884;2023-12-07T07:26:28;17.73;;;16.63;;
16689;SDS011;8458;52.220;9.884;2023-12-07T07:28:54;17.53;;;16.33;;
16689;SDS011;8458;52.220;9.884;2023-12-07T07:31:20;17.07;;;15.97;;
16689;SDS011;8458;52.220;9.884;2023-12-07T07:33:47;18.10;;;16.80;;
16689;SDS011;8458;52.220;9.884;2023-12-07T07:36:15;18.63;;;17.33;;
16689;SDS011;8458;52.220;9.884;2023-12-07T07:38:42;18.67;;;17.50;;
16689;SDS011;8458;52.220;9.884;2023-12-07T07:41:09;18.90;;;17.80;;
16689;SDS011;8458;52.220;9.884;2023-12-07T07:43:36;19.40;;;18.10;;
16689;SDS011;8458;52.220;9.884;2023-12-07T07:46:03;19.03;;;17.77;;
16689;SDS011;8458;52.220;9.884;2023-12-07T07:48:29;20.03;;;18.53;;
16689;SDS011;8458;52.220;9.884;2023-12-07T07:50:56;18.80;;;17.57;;
16689;SDS011;8458;52.220;9.884;2023-12-07T07:53:24;19.07;;;17.87;;
16689;SDS011;8458;52.220;9.884;2023-12-07T07:55:50;19.27;;;18.07;;
16689;SDS011;8458;52.220;9.884;2023-12-07T07:58:17;18.77;;;17.47;;
16689;SDS011;8458;52.220;9.884;2023-12-07T08:00:43;18.63;;;17.23;;
16689;SDS011;8458;52.220;9.884;2023-12-07T08:03:11;19.10;;;17.80;;
16689;SDS011;8458;52.220;9.884;2023-12-07T08:05:38;19.57;;;18.37;;
16689;SDS011;8458;52.220;9.884;2023-12-07T08:08:04;20.43;;;18.97;;
16689;SDS011;8458;52.220;9.884;2023-12-07T08:10:32;18.50;;;17.37;;
16689;SDS011;8458;52.220;9.884;2023-12-07T08:12:58;18.90;;;17.70;;
16689;SDS011;8458;52.220;9.884;2023-12-07T08:15:25;19.87;;;18.47;;
16689;SDS011;8458;52.220;9.884;2023-12-07T08:17:51;18.97;;;17.77;;
16689;SDS011;8458;52.220;9.884;2023-12-07T08:20:18;19.93;;;18.63;;
16689;SDS011;8458;52.220;9.884;2023-12-07T08:22:44;20.00;;;18.60;;
16689;SDS011;8458;52.220;9.884;2023-12-07T08:25:11;20.13;;;18.93;;
16689;SDS011;8458;52.220;9.884;2023-12-07T08:27:39;19.50;;;18.30;;
16689;SDS011;8458;52.220;9.884;2023-12-07T08:30:06;19.47;;;18.07;;
16689;SDS011;8458;52.220;9.884;2023-12-07T08:32:34;19.30;;;18.07;;
16689;SDS011;8458;52.220;9.884;2023-12-07T08:35:00;18.33;;;17.03;;
16689;SDS011;8458;52.220;9.884;2023-12-07T08:37:27;17.73;;;16.60;;
16689;SDS011;8458;52.220;9.884;2023-12-07T08:39:53;17.97;;;16.87;;
16689;SDS011;8458;52.220;9.884;2023-12-07T08:42:20;18.80;;;17.60;;
16689;SDS011;8458;52.220;9.884;2023-12-07T08:44:48;19.10;;;17.90;;
16689;SDS011;8458;52.220;9.884;2023-12-07T08:47:14;19.13;;;17.83;;
16689;SDS011;8458;52.220;9.884;2023-12-07T08:49:41;17.57;;;16.57;;
16689;SDS011;8458;52.220;9.884;2023-12-07T08:52:07;18.33;;;17.17;;
16689;SDS011;8458;52.220;9.884;2023-12-07T08:54:33;17.77;;;16.57;;
16689;SDS011;8458;52.220;9.884;2023-12-07T08:57:01;18.07;;;16.97;;
16689;SDS011;8458;52.220;9.884;2023-12-07T08:59:28;17.83;;;16.57;;
16689;SDS011;8458;52.220;9.884;2023-12-07T09:01:56;17.33;;;16.23;;
16689;SDS011;8458;52.220;9.884;2023-12-07T09:04:23;16.57;;;15.57;;
16689;SDS011;8458;52.220;9.884;2023-12-07T09:06:49;16.30;;;15.30;;
16689;SDS011;8458;52.220;9.884;2023-12-07T09:09:15;16.63;;;15.63;;
16689;SDS011;8458;52.220;9.884;2023-12-07T09:11:42;15.87;;;14.87;;
16689;SDS011;8458;52.220;9.884;2023-12-07T09:14:08;16.13;;;15.13;;
16689;SDS011;8458;52.220;9.884;2023-12-07T09:16:42;16.50;;;15.43;;
16689;SDS011;8458;52.220;9.884;2023-12-07T09:19:10;16.33;;;15.23;;
16689;SDS011;8458;52.220;9.884;2023-12-07T09:21:37;15.80;;;14.80;;
16689;SDS011;8458;52.220;9.884;2023-12-07T09:24:04;16.63;;;15.53;;
16689;SDS011;8458;52.220;9.884;2023-12-07T09:26:31;17.23;;;16.10;;
16689;SDS011;8458;52.220;9.884;2023-12-07T09:28:58;16.70;;;15.70;;
16689;SDS011;8458;52.220;9.884;2023-12-07T09:31:24;16.37;;;15.27;;
16689;SDS011;8458;52.220;9.884;2023-12-07T09:33:51;16.37;;;15.27;;
16689;SDS011;8458;52.220;9.884;2023-12-07T09:36:20;16.37;;;15.37;;
16689;SDS011;8458;52.220;9.884;2023-12-07T09:38:47;16.90;;;15.80;;
16689;SDS011;8458;52.220;9.884;2023-12-07T09:41:13;16.50;;;15.50;;
16689;SDS011;8458;52.220;9.884;2023-12-07T09:43:40;17.23;;;16.13;;
16689;SDS011;8458;52.220;9.884;2023-12-07T09:46:06;16.27;;;15.17;;
16689;SDS011;8458;52.220;9.884;2023-12-07T09:48:34;17.03;;;15.93;;
16689;SDS011;8458;52.220;9.884;2023-12-07T09:51:03;16.20;;;15.20;;
16689;SDS011;8458;52.220;9.884;2023-12-07T09:53:33;16.90;;;15.80;;
16689;SDS011;8458;52.220;9.884;2023-12-07T09:56:00;15.17;;;14.23;;
16689;SDS011;8458;52.220;9.884;2023-12-07T09:58:27;16.87;;;15.77;;
16689;SDS011;8458;52.220;9.884;2023-12-07T10:00:53;16.20;;;15.07;;
16689;SDS011;8458;52.220;9.884;2023-12-07T10:03:20;17.80;;;16.60;;
16689;SDS011;8458;52.220;9.884;2023-12-07T10:05:54;16.87;;;15.77;;
16689;SDS011;8458;52.220;9.884;2023-12-07T10:08:26;16.90;;;15.70;;
16689;SDS011;8458;52.220;9.884;2023-12-07T10:11:02;16.83;;;15.63;;
16689;SDS011;8458;52.220;9.884;2023-12-07T10:13:30;16.03;;;15.03;;
16689;SDS011;8458;52.220;9.884;2023-12-07T10:16:07;16.40;;;15.40;;
16689;SDS011;8458;52.220;9.884;2023-12-07T10:18:35;16.43;;;15.43;;
16689;SDS011;8458;52.220;9.884;2023-12-07T10:21:02;16.20;;;15.20;;
16689;SDS011;8458;52.220;9.884;2023-12-07T10:23:29;15.93;;;14.93;;
16689;SDS011;8458;52.220;9.884;2023-12-07T10:25:57;15.23;;;14.23;;
16689;SDS011;8458;52.220;9.884;2023-12-07T10:28:25;15.33;;;14.43;;
16689;SDS011;8458;52.220;9.884;2023-12-07T10:30:52;16.73;;;15.67;;
16689;SDS011;8458;52.220;9.884;2023-12-07T10:33:19;16.30;;;15.20;;
16689;SDS011;8458;52.220;9.884;2023-12-07T10:35:46;16.13;;;15.13;;
16689;SDS011;8458;52.220;9.884;2023-12-07T10:38:13;16.43;;;15.00;;
16689;SDS011;8458;52.220;9.884;2023-12-07T10:40:40;15.83;;;14.73;;
16689;SDS011;8458;52.220;9.884;2023-12-07T10:43:07;15.97;;;14.97;;
16689;SDS011;8458;52.220;9.884;2023-12-07T10:45:36;16.07;;;14.97;;
16689;SDS011;8458;52.220;9.884;2023-12-07T10:48:03;17.10;;;15.90;;
16689;SDS011;8458;52.220;9.884;2023-12-07T10:50:32;15.50;;;14.60;;
16689;SDS011;8458;52.220;9.884;2023-12-07T10:53:03;16.40;;;15.30;;
16689;SDS011;8458;52.220;9.884;2023-12-07T10:55:34;15.90;;;14.90;;
16689;SDS011;8458;52.220;9.884;2023-12-07T10:58:08;16.90;;;15.50;;
16689;SDS011;8458;52.220;9.884;2023-12-07T11:00:39;16.30;;;15.23;;
16689;SDS011;8458;52.220;9.884;2023-12-07T11:03:09;16.70;;;15.60;;
16689;SDS011;8458;52.220;9.884;2023-12-07T11:05:36;16.67;;;15.57;;
16689;SDS011;8458;52.220;9.884;2023-12-07T11:08:04;16.10;;;15.10;;
16689;SDS011;8458;52.220;9.884;2023-12-07T11:10:34;16.60;;;15.50;;
16689;SDS011;8458;52.220;9.884;2023-12-07T11:13:06;16.77;;;15.67;;
16689;SDS011;8458;52.220;9.884;2023-12-07T11:15:38;16.03;;;15.03;;
16689;SDS011;8458;52.220;9.884;2023-12-07T11:18:06;17.20;;;16.10;;
16689;SDS011;8458;52.220;9.884;2023-12-07T11:20:32;16.33;;;15.33;;
16689;SDS011;8458;52.220;9.884;2023-12-07T11:23:06;18.07;;;16.73;;
16689;SDS011;8458;52.220;9.884;2023-12-07T11:25:33;17.70;;;16.60;;
16689;SDS011;8458;52.220;9.884;2023-12-07T11:28:00;17.20;;;15.80;;
16689;SDS011;8458;52.220;9.884;2023-12-07T11:30:28;18.10;;;16.83;;
16689;SDS011;8458;52.220;9.884;2023-12-07T11:32:58;17.47;;;16.07;;
16689;SDS011;8458;52.220;9.884;2023-12-07T11:35:25;17.53;;;16.37;;
16689;SDS011;8458;52.220;9.884;2023-12-07T11:38:04;18.70;;;17.30;;
16689;SDS011;8458;52.220;9.884;2023-12-07T11:40:36;18.47;;;16.93;;
16689;SDS011;8458;52.220;9.884;2023-12-07T11:43:03;17.93;;;16.63;;
16689;SDS011;8458;52.220;9.884;2023-12-07T11:45:40;18.63;;;17.40;;
16689;SDS011;8458;52.220;9.884;2023-12-07T11:48:10;19.00;;;17.50;;
16689;SDS011;8458;52.220;9.884;2023-12-07T11:50:57;18.03;;;16.83;;
16689;SDS011;8458;52.220;9.884;2023-12-07T11:53:25;18.47;;;17.07;;
16689;SDS011;8458;52.220;9.884;2023-12-07T11:55:52;18.03;;;16.83;;
16689;SDS011;8458;52.220;9.884;2023-12-07T11:58:19;18.83;;;17.53;;
16689;SDS011;8458;52.220;9.884;2023-12-07T12:00:46;18.70;;;17.37;;
16689;SDS011;8458;52.220;9.884;2023-12-07T12:03:14;18.40;;;17.00;;
16689;SDS011;8458;52.220;9.884;2023-12-07T12:05:40;17.53;;;16.07;;
16689;SDS011;8458;52.220;9.884;2023-12-07T12:08:08;16.87;;;15.67;;
16689;SDS011;8458;52.220;9.884;2023-12-07T12:10:35;17.13;;;16.03;;
16689;SDS011;8458;52.220;9.884;2023-12-07T12:13:01;17.23;;;16.03;;
16689;SDS011;8458;52.220;9.884;2023-12-07T12:15:28;16.47;;;15.37;;
16689;SDS011;8458;52.220;9.884;2023-12-07T12:17:55;16.90;;;15.90;;
16689;SDS011;8458;52.220;9.884;2023-12-07T12:20:23;16.27;;;15.17;;
16689;SDS011;8458;52.220;9.884;2023-12-07T12:22:50;16.47;;;15.37;;
16689;SDS011;8458;52.220;9.884;2023-12-07T12:25:18;16.57;;;15.57;;
16689;SDS011;8458;52.220;9.884;2023-12-07T12:27:46;17.47;;;16.20;;
16689;SDS011;8458;52.220;9.884;2023-12-07T12:30:13;18.23;;;17.03;;
16689;SDS011;8458;52.220;9.884;2023-12-07T12:32:43;17.90;;;16.37;;
16689;SDS011;8458;52.220;9.884;2023-12-07T12:35:09;16.70;;;15.50;;
16689;SDS011;8458;52.220;9.884;2023-12-07T12:37:38;16.60;;;15.40;;
16689;SDS011;8458;52.220;9.884;2023-12-07T12:40:05;15.97;;;14.87;;
16689;SDS011;8458;52.220;9.884;2023-12-07T12:42:32;19.87;;;18.07;;
16689;SDS011;8458;52.220;9.884;2023-12-07T12:45:02;18.03;;;16.70;;
16689;SDS011;8458;52.220;9.884;2023-12-07T12:47:29;25.33;;;22.93;;
16689;SDS011;8458;52.220;9.884;2023-12-07T12:49:56;25.53;;;22.83;;
16689;SDS011;8458;52.220;9.884;2023-12-07T12:52:23;19.13;;;17.73;;
16689;SDS011;8458;52.220;9.884;2023-12-07T12:54:52;15.93;;;14.83;;
16689;SDS011;8458;52.220;9.884;2023-12-07T12:57:21;14.97;;;13.87;;
16689;SDS011;8458;52.220;9.884;2023-12-07T12:59:47;15.30;;;14.20;;
16689;SDS011;8458;52.220;9.884;2023-12-07T13:02:14;15.10;;;14.00;;
16689;SDS011;8458;52.220;9.884;2023-12-07T13:04:41;14.73;;;13.73;;
16689;SDS011;8458;52.220;9.884;2023-12-07T13:07:07;15.03;;;13.93;;
16689;SDS011;8458;52.220;9.884;2023-12-07T13:09:34;14.50;;;13.50;;
16689;SDS011;8458;52.220;9.884;2023-12-07T13:12:01;14.43;;;13.50;;
16689;SDS011;8458;52.220;9.884;2023-12-07T13:14:28;14.80;;;13.80;;
16689;SDS011;8458;52.220;9.884;2023-12-07T13:16:54;15.20;;;14.20;;
16689;SDS011;8458;52.220;9.884;2023-12-07T13:19:21;16.17;;;15.07;;
16689;SDS011;8458;52.220;9.884;2023-12-07T13:21:47;16.97;;;15.87;;
16689;SDS011;8458;52.220;9.884;2023-12-07T13:24:14;17.10;;;15.90;;
16689;SDS011;8458;52.220;9.884;2023-12-07T13:26:40;14.27;;;13.07;;
16689;SDS011;8458;52.220;9.884;2023-12-07T13:29:08;13.37;;;12.47;;
16689;SDS011;8458;52.220;9.884;2023-12-07T13:31:35;13.80;;;12.90;;
16689;SDS011;8458;52.220;9.884;2023-12-07T13:34:01;13.60;;;12.70;;
16689;SDS011;8458;52.220;9.884;2023-12-07T13:36:28;12.60;;;11.60;;
16689;SDS011;8458;52.220;9.884;2023-12-07T13:38:56;13.20;;;12.37;;
16689;SDS011;8458;52.220;9.884;2023-12-07T13:41:23;12.50;;;11.70;;
16689;SDS011;8458;52.220;9.884;2023-12-07T13:43:49;12.20;;;11.40;;
16689;SDS011;8458;52.220;9.884;2023-12-07T13:46:17;12.53;;;11.73;;
16689;SDS011;8458;52.220;9.884;2023-12-07T13:48:44;12.57;;;11.73;;
16689;SDS011;8458;52.220;9.884;2023-12-07T13:51:11;12.90;;;12.00;;
16689;SDS011;8458;52.220;9.884;2023-12-07T13:53:38;14.07;;;13.10;;
16689;SDS011;8458;52.220;9.884;2023-12-07T13:56:05;12.93;;;12.13;;
16689;SDS011;8458;52.220;9.884;2023-12-07T13:58:33;12.10;;;11.17;;
16689;SDS011;8458;52.220;9.884;2023-12-07T14:01:00;11.10;;;10.30;;
16689;SDS011;8458;52.220;9.884;2023-12-07T14:03:28;9.37;;;8.77;;
16689;SDS011;8458;52.220;9.884;2023-12-07T14:05:54;10.40;;;9.33;;
16689;SDS011;8458;52.220;9.884;2023-12-07T14:08:21;8.07;;;7.47;;
16689;SDS011;8458;52.220;9.884;2023-12-07T14:10:47;7.50;;;7.00;;
16689;SDS011;8458;52.220;9.884;2023-12-07T14:13:13;7.80;;;7.30;;
16689;SDS011;8458;52.220;9.884;2023-12-07T14:15:42;7.07;;;6.53;;
16689;SDS011;8458;52.220;9.884;2023-12-07T14:18:09;7.70;;;7.20;;
16689;SDS011;8458;52.220;9.884;2023-12-07T14:20:37;6.83;;;6.40;;
16689;SDS011;8458;52.220;9.884;2023-12-07T14:23:03;6.50;;;6.00;;
16689;SDS011;8458;52.220;9.884;2023-12-07T14:25:30;5.77;;;5.37;;
16689;SDS011;8458;52.220;9.884;2023-12-07T14:27:57;6.00;;;5.60;;
16689;SDS011;8458;52.220;9.884;2023-12-07T14:30:23;5.60;;;5.20;;
16689;SDS011;8458;52.220;9.884;2023-12-07T14:32:50;5.70;;;5.40;;
16689;SDS011;8458;52.220;9.884;2023-12-07T14:35:17;5.90;;;5.40;;
16689;SDS011;8458;52.220;9.884;2023-12-07T14:37:45;6.40;;;5.90;;